METAR Data
IDs: Format: Raw Decoded Include TAF

Data at: 1342 UTC 26 Feb 2021

LFPV 261330Z AUTO 02010KT 340V060 9999 BKN047 BKN056 10/01 Q1035 NOSIG